Impacts METAR Board
IDs:

KSLC - Salt Lake City Intl, UT, US

Updated at: 0400 UTC 22 Apr 2018
Potential Impact None Slight Moderate High
Time 21/16Z 21/17Z 21/18Z 21/19Z 21/20Z 21/21Z 21/22Z 21/23Z 22/00Z 22/01Z 22/02Z 22/03Z 22/04Z
Temp56 60 63 65 66 66 68 69 69 68 64 61 60
Dewpt35 32 30 29 28 31 24 22 20 22 26 29 30
Altim30.20 30.19 30.19 30.19 30.18 30.17 30.16 30.15 30.13 30.13 30.12 30.13 30.14
VIS10 10 10 10 10 10 10 10 10 10 10 10 10
CIG-- -- -- -- -- -- -- -- -- -- -- -- --
CoverFEWFEWFEWFEWFEWFEWFEWFEWFEWFEWFEWFEWCLR
FltCatVFRVFRVFRVFRVFRVFRVFRVFRVFRVFRVFRVFRVFR
WX--------------------------
WDir1200035028003503002902902700120
WSpd5 0 0 6 6 5 7 8 8 6 4 0 5
WGst-- -- -- -- 14 -- -- -- -- -- -- -- --
Raw hourly METARs
KSLC 211554Z 12005KT 10SM FEW005 13/02 A3020 RMK AO2 SLP198 FU FEW005 FU N T01330017
KSLC 211654Z 00000KT 10SM FEW005 16/00 A3019 RMK AO2 SLP197 FU FEW005 FU NE T01560000
KSLC 211754Z 00000KT 10SM FEW003 FEW070 17/M01 A3019 RMK AO2 SLP195 FU FEW003 FU W T01721011 10172 20061 58001
KSLC 211854Z 35006KT 10SM FEW003 FEW070 18/M02 A3019 RMK AO2 SLP192 FU FEW003 FU W AND VC NW T01831017
KSLC 211954Z 28006G14KT 10SM FEW003 FEW075 19/M02 A3018 RMK AO2 SLP190 FU FEW003 FU W AND VC NW T01891022
KSLC 212054Z VRB05KT 10SM FEW090 19/M01 A3017 RMK AO2 SLP190 T01891006 58005
KSLC 212154Z 35007KT 10SM FEW090 FEW180 20/M04 A3016 RMK AO2 SLP186 T02001044
KSLC 212254Z 30008KT 260V340 10SM FEW090 FEW180 21/M06 A3015 RMK AO2 SLP181 T02061056
KSLC 212354Z 29008KT 10SM FEW090 21/M07 A3013 RMK AO2 SLP176 T02061067 10206 20178 58011
KSLC 220054Z 29006KT 10SM FEW090 20/M06 A3013 RMK AO2 SLP176 T02001056
KSLC 220154Z 27004KT 10SM FEW090 18/M03 A3012 RMK AO2 SLP174 T01781033
KSLC 220254Z 00000KT 10SM FEW090 16/M02 A3013 RMK AO2 SLP176 T01611017 55000
KSLC 220354Z 12005KT 10SM CLR 16/M01 A3014 RMK AO2 SLP179 T01561011



Page loaded:  04:46 UTC  |   09:46 PM Pacific  |   10:46 PM Mountain  |   11:46 PM Central  |   12:46 AM Eastern

 

ADVISORIES

FORECASTS

FORECASTS

OBSERVATIONS

USER TOOLS

ABOUT US